Time;durP1;ratioP1;P1;durP2;ratioP2;P2;SDS_P1;SDS_P2;PMS_P1;PMS_P2;Temp;Humidity;BMP_temperature;BMP_pressure;BME280_temperature;BME280_humidity;BME280_pressure;Samples;Min_cycle;Max_cycle;Signal;HPM_P1;HPM_P2
2021/08/28 00:04:19;;;;;;;;;1.00;1.00;;;;;19.39;100.00;101894.97;5100250;27;45592;-65
2021/08/28 00:06:47;;;;;;;;;3.00;2.00;;;;;19.37;100.00;101904.75;5100260;27;45150;-65
2021/08/28 00:09:12;;;;;;;;;2.50;1.00;;;;;19.30;100.00;101898.78;5100598;27;45274;-66
2021/08/28 00:11:38;;;;;;;;;2.00;2.00;;;;;19.26;100.00;101905.97;5100477;27;46388;-65
2021/08/28 00:14:03;;;;;;;;;1.00;0.00;;;;;19.16;100.00;101880.69;5100151;27;45335;-65
2021/08/28 00:16:29;;;;;;;;;1.75;1.00;;;;;19.17;100.00;101886.84;5100348;27;45415;-65
2021/08/28 00:18:54;;;;;;;;;2.00;2.00;;;;;19.18;100.00;101886.78;5100326;27;45388;-65
2021/08/28 00:21:19;;;;;;;;;0.75;0.75;;;;;19.15;100.00;101891.31;5115522;27;48074;-65
2021/08/28 00:23:45;;;;;;;;;2.00;2.00;;;;;19.12;100.00;101886.13;5100189;27;45330;-65
2021/08/28 00:26:10;;;;;;;;;2.25;1.00;;;;;19.11;100.00;101892.34;5100080;27;45392;-65
2021/08/28 00:28:35;;;;;;;;;1.75;1.75;;;;;19.04;100.00;101883.72;5098982;27;45577;-65
2021/08/28 00:34:22;;;;;;;;;1.00;0.25;;;;;18.92;100.00;101884.09;5098539;27;45554;-65
2021/08/28 00:36:48;;;;;;;;;1.25;1.00;;;;;18.94;100.00;101887.56;5100232;27;45402;-65
2021/08/28 00:39:13;;;;;;;;;1.25;1.00;;;;;18.94;100.00;101896.38;5099945;27;45522;-65
2021/08/28 00:41:38;;;;;;;;;2.75;2.00;;;;;18.92;100.00;101899.97;5099959;27;46240;-65
2021/08/28 00:44:04;;;;;;;;;4.50;1.00;;;;;18.87;100.00;101894.81;5098272;27;45453;-65
2021/08/28 00:46:30;;;;;;;;;2.00;1.00;;;;;18.79;100.00;101886.25;5098541;27;45473;-65
2021/08/28 00:48:55;;;;;;;;;2.00;2.00;;;;;18.83;100.00;101900.25;5099774;27;45278;-64
2021/08/28 00:51:21;;;;;;;;;1.00;1.00;;;;;18.77;100.00;101895.13;5099445;27;46711;-65
2021/08/28 00:53:47;;;;;;;;;2.00;2.00;;;;;18.74;100.00;101892.56;5099466;27;45311;-65
2021/08/28 00:56:15;;;;;;;;;2.00;2.00;;;;;18.71;100.00;101895.31;5099853;27;45342;-65
2021/08/28 00:58:42;;;;;;;;;2.00;1.25;;;;;18.70;100.00;101894.44;5099754;27;45390;-65
2021/08/28 01:04:41;;;;;;;;;2.00;1.00;;;;;18.56;100.00;101892.19;5098221;27;45297;-65
2021/08/28 01:07:26;;;;;;;;;2.50;1.50;;;;;18.53;100.00;101886.09;5099603;27;45279;-63
2021/08/28 01:09:55;;;;;;;;;2.75;2.00;;;;;18.50;100.00;101883.56;5099586;27;45316;-65
2021/08/28 01:12:25;;;;;;;;;2.25;2.25;;;;;18.46;100.00;101888.06;5099413;27;45373;-64
2021/08/28 01:14:56;;;;;;;;;3.00;2.00;;;;;18.41;100.00;101895.28;5099104;27;45231;-65
2021/08/28 01:17:25;;;;;;;;;2.25;2.00;;;;;18.41;100.00;101903.19;5097949;27;45398;-64
2021/08/28 01:20:16;;;;;;;;;2.50;2.50;;;;;18.41;100.00;101902.34;5099635;27;45173;-65
2021/08/28 01:22:42;;;;;;;;;1.25;1.00;;;;;18.32;100.00;101896.38;5098882;27;47306;-65
2021/08/28 01:25:09;;;;;;;;;4.00;2.00;;;;;18.30;100.00;101890.28;5099002;27;45565;-66
2021/08/28 01:27:41;;;;;;;;;3.50;3.00;;;;;18.27;100.00;101887.72;5099331;27;45262;-65
2021/08/28 01:30:09;;;;;;;;;2.25;1.50;;;;;18.23;100.00;101890.50;5097913;27;45352;-65
2021/08/28 01:32:35;;;;;;;;;4.00;1.50;;;;;18.23;100.00;101901.94;5098680;27;47162;-65
2021/08/28 01:35:01;;;;;;;;;3.00;2.25;;;;;18.18;100.00;101895.03;5098610;27;45763;-65
2021/08/28 01:37:26;;;;;;;;;4.25;2.00;;;;;18.12;100.00;101888.16;5099250;27;45248;-65
2021/08/28 01:39:55;;;;;;;;;2.75;2.00;;;;;18.10;100.00;101903.16;5099331;27;45287;-65
2021/08/28 01:42:21;;;;;;;;;2.75;2.00;;;;;18.01;100.00;101888.44;5098527;27;46715;-65
2021/08/28 01:44:49;;;;;;;;;3.00;2.00;;;;;17.99;100.00;101884.09;5098885;27;45300;-65
2021/08/28 01:47:18;;;;;;;;;3.00;2.00;;;;;17.98;100.00;101893.81;5098640;27;45347;-65
2021/08/28 01:49:45;;;;;;;;;3.75;2.75;;;;;17.87;100.00;101880.00;5099208;27;45408;-65
2021/08/28 01:52:11;;;;;;;;;2.00;1.25;;;;;17.83;100.00;101882.75;5098841;27;45381;-65
2021/08/28 01:54:37;;;;;;;;;2.25;2.25;;;;;17.76;100.00;101882.06;5098716;27;45339;-65
2021/08/28 01:57:03;;;;;;;;;4.25;2.00;;;;;17.71;100.00;101879.53;5098631;27;45306;-65
2021/08/28 01:59:30;;;;;;;;;5.00;3.00;;;;;17.74;100.00;101891.78;5099034;27;45338;-65
2021/08/28 02:01:55;;;;;;;;;2.00;1.75;;;;;17.66;100.00;101891.09;5098201;27;46665;-65
2021/08/28 02:04:21;;;;;;;;;4.00;2.00;;;;;17.63;100.00;101891.16;5098430;27;45317;-66
2021/08/28 02:06:57;;;;;;;;;3.00;3.00;;;;;17.54;100.00;101880.81;5098377;27;45309;-64
2021/08/28 02:09:51;;;;;;;;;3.75;2.00;;;;;17.55;100.00;101890.47;5098876;27;45475;-65
2021/08/28 02:12:30;;;;;;;;;3.50;2.75;;;;;17.46;100.00;101888.94;5098198;27;47456;-65
2021/08/28 02:15:06;;;;;;;;;2.50;2.00;;;;;17.48;100.00;101905.63;5097985;27;45326;-65
2021/08/28 02:17:35;;;;;;;;;3.00;2.00;;;;;17.47;100.00;101905.66;5098557;27;45252;-64
2021/08/28 02:20:04;;;;;;;;;2.00;1.25;;;;;17.41;100.00;101894.31;5098475;27;45155;-64
2021/08/28 02:22:35;;;;;;;;;2.75;2.00;;;;;17.40;100.00;101900.50;5098037;27;47505;-64
2021/08/28 02:25:05;;;;;;;;;3.50;3.50;;;;;17.37;100.00;101900.59;5098149;27;45533;-65
2021/08/28 02:27:38;;;;;;;;;2.00;2.00;;;;;17.32;100.00;101898.97;5098393;27;45310;-66
2021/08/28 02:30:04;;;;;;;;;3.00;3.00;;;;;17.28;100.00;101903.44;5098257;27;45430;-65
2021/08/28 02:32:31;;;;;;;;;3.00;2.00;;;;;17.19;100.00;101900.13;5097923;27;47633;-65
2021/08/28 02:34:57;;;;;;;;;2.00;2.00;;;;;17.13;100.00;101903.78;5097719;27;45292;-65
2021/08/28 02:37:24;;;;;;;;;5.00;3.00;;;;;17.09;100.00;101903.00;5098382;27;45349;-66
2021/08/28 02:39:50;;;;;;;;;3.00;2.00;;;;;17.10;100.00;101903.88;5098162;27;45213;-65
2021/08/28 02:42:16;;;;;;;;;2.25;2.00;;;;;17.03;100.00;101907.56;5098027;27;45564;-66
2021/08/28 02:44:43;;;;;;;;;3.00;2.25;;;;;17.04;100.00;101914.56;5097770;27;45240;-65
2021/08/28 02:47:10;;;;;;;;;3.00;2.50;;;;;16.95;100.00;101898.91;5097831;27;45370;-65
2021/08/28 02:49:38;;;;;;;;;3.75;2.00;;;;;16.96;100.00;101906.81;5098251;27;45496;-66
2021/08/28 02:52:06;;;;;;;;;4.50;4.00;;;;;16.96;100.00;101911.22;5098034;27;45717;-65
2021/08/28 02:54:34;;;;;;;;;3.25;2.00;;;;;16.89;100.00;101893.78;5098039;27;45264;-64
2021/08/28 02:57:00;;;;;;;;;2.25;1.25;;;;;16.89;100.00;101909.63;5098164;27;45407;-66
2021/08/28 02:59:28;;;;;;;;;4.00;3.00;;;;;16.83;100.00;101895.66;5097996;27;45350;-66
2021/08/28 03:01:54;;;;;;;;;2.00;2.00;;;;;16.80;100.00;101901.00;5097794;27;45418;-66
2021/08/28 03:04:23;;;;;;;;;2.50;2.50;;;;;16.72;100.00;101894.16;5097648;27;45476;-65
2021/08/28 03:06:50;;;;;;;;;2.00;1.75;;;;;16.69;100.00;101888.94;5097604;27;45335;-65
2021/08/28 03:09:17;;;;;;;;;2.75;2.00;;;;;16.70;100.00;101890.69;5098114;27;45350;-66
2021/08/28 03:11:44;;;;;;;;;5.00;3.00;;;;;16.66;100.00;101892.50;5097686;27;46165;-66
2021/08/28 03:14:10;;;;;;;;;4.00;3.00;;;;;16.67;100.00;101893.38;5097436;27;45492;-65
2021/08/28 03:16:39;;;;;;;;;5.50;3.75;;;;;16.68;100.00;101901.25;5097964;27;45150;-66
2021/08/28 03:19:07;;;;;;;;;3.00;2.00;;;;;16.66;100.00;101895.16;5097722;27;45341;-65
2021/08/28 03:21:33;;;;;;;;;1.75;1.75;;;;;16.64;100.00;101896.91;5097749;27;45585;-64
2021/08/28 03:24:01;;;;;;;;;4.00;3.00;;;;;16.59;100.00;101888.25;5097642;27;45316;-65
2021/08/28 03:26:28;;;;;;;;;3.00;2.00;;;;;16.59;100.00;101903.19;5097447;27;45268;-66
2021/08/28 03:28:56;;;;;;;;;3.00;3.00;;;;;16.56;100.00;101905.91;5100600;27;45329;-65
2021/08/28 03:34:43;;;;;;;;;5.00;2.75;;;;;16.52;100.00;101895.41;5098058;27;45344;-65
2021/08/28 03:37:09;;;;;;;;;2.00;2.00;;;;;16.55;100.00;101902.41;5100804;27;45311;-66
2021/08/28 03:39:38;;;;;;;;;2.00;1.00;;;;;16.57;100.00;101900.59;5101233;27;45280;-65
2021/08/28 03:42:03;;;;;;;;;3.00;3.00;;;;;16.54;100.00;101893.63;5100515;27;46152;-66
2021/08/28 03:44:28;;;;;;;;;2.75;2.75;;;;;16.56;100.00;101893.59;5100878;27;45296;-66
2021/08/28 03:46:54;;;;;;;;;3.00;2.00;;;;;16.54;100.00;101890.13;5100891;27;45346;-65
2021/08/28 03:49:19;;;;;;;;;5.25;2.25;;;;;16.49;100.00;101886.69;5100813;27;45146;-65
2021/08/28 03:51:45;;;;;;;;;5.00;2.50;;;;;16.49;100.00;101895.47;5100610;27;46545;-66
2021/08/28 03:54:10;;;;;;;;;4.50;3.75;;;;;16.38;100.00;101876.38;5100655;27;45270;-65
2021/08/28 03:56:36;;;;;;;;;3.00;2.00;;;;;16.44;100.00;101889.41;5099282;27;45323;-65
2021/08/28 03:59:01;;;;;;;;;6.50;2.00;;;;;16.42;100.00;101890.34;5100738;27;45552;-64
2021/08/28 04:04:48;;;;;;;;;2.75;2.75;;;;;16.33;100.00;101887.91;5100287;27;45424;-65
2021/08/28 04:07:14;;;;;;;;;3.50;3.00;;;;;16.26;100.00;101886.28;5116174;27;45227;-65
2021/08/28 04:09:39;;;;;;;;;2.50;2.00;;;;;16.23;100.00;101885.44;5100535;27;45401;-65
2021/08/28 04:12:05;;;;;;;;;3.50;3.00;;;;;16.22;100.00;101885.47;5100287;27;46559;-65
2021/08/28 04:14:30;;;;;;;;;3.00;3.00;;;;;16.22;100.00;101890.72;5100378;27;45259;-65
2021/08/28 04:16:56;;;;;;;;;4.00;4.00;;;;;16.21;100.00;101902.16;5100478;27;45252;-66
2021/08/28 04:19:21;;;;;;;;;4.25;3.50;;;;;16.00;100.00;101871.81;5100369;27;45266;-66
2021/08/28 04:21:46;;;;;;;;;4.00;3.00;;;;;16.14;100.00;101893.53;5099979;27;46221;-65
2021/08/28 04:24:14;;;;;;;;;3.00;2.50;;;;;16.11;100.00;101895.34;5099959;27;45376;-65
2021/08/28 04:26:40;;;;;;;;;7.25;5.50;;;;;16.09;100.00;101903.28;5100124;27;45438;-64
2021/08/28 04:29:05;;;;;;;;;6.25;2.25;;;;;16.06;100.00;101898.03;5100005;27;45483;-65
2021/08/28 04:34:52;;;;;;;;;2.25;2.25;;;;;15.93;100.00;101896.56;5097458;27;45410;-65
2021/08/28 04:37:18;;;;;;;;;4.00;2.75;;;;;15.94;100.00;101898.28;5100117;27;45278;-65
2021/08/28 04:39:43;;;;;;;;;3.00;2.00;;;;;15.89;100.00;101898.38;5100251;27;45339;-65
2021/08/28 04:42:08;;;;;;;;;5.25;2.50;;;;;15.87;100.00;101896.66;5099560;27;47206;-65
2021/08/28 04:44:34;;;;;;;;;3.00;3.00;;;;;15.85;100.00;101906.38;5099828;27;45317;-65
2021/08/28 04:46:59;;;;;;;;;2.50;2.50;;;;;15.82;100.00;101906.38;5099714;27;45335;-65
2021/08/28 04:49:24;;;;;;;;;3.75;2.50;;;;;15.84;100.00;101912.50;5100152;27;45366;-65
2021/08/28 04:51:50;;;;;;;;;3.50;3.00;;;;;15.76;100.00;101895.97;5099453;27;46530;-66
2021/08/28 04:54:15;;;;;;;;;4.00;2.50;;;;;15.78;100.00;101904.72;5099746;27;45365;-65
2021/08/28 04:56:41;;;;;;;;;5.00;3.00;;;;;15.71;100.00;101905.72;5099534;27;45280;-65
2021/08/28 04:59:06;;;;;;;;;3.00;2.50;;;;;15.75;100.00;101902.13;5099674;27;45335;-65
2021/08/28 05:04:55;;;;;;;;;7.75;3.00;;;;;15.84;100.00;101909.84;5099371;27;45380;-65
2021/08/28 05:07:20;;;;;;;;;2.50;2.50;;;;;15.88;100.00;101908.94;5099642;27;45354;-65
2021/08/28 05:09:45;;;;;;;;;4.25;3.00;;;;;15.92;100.00;101908.84;5099483;27;45486;-65
2021/08/28 05:12:11;;;;;;;;;6.00;5.00;;;;;15.96;100.00;101907.03;5099465;27;46173;-65
2021/08/28 05:14:38;;;;;;;;;4.25;3.00;;;;;15.99;100.00;101900.84;5099397;27;45360;-65
2021/08/28 05:17:04;;;;;;;;;6.50;4.00;;;;;16.04;100.00;101915.66;5099219;27;45367;-65
2021/08/28 05:19:30;;;;;;;;;4.00;3.00;;;;;16.11;100.00;101913.78;5099374;27;45508;-65
2021/08/28 05:21:55;;;;;;;;;5.75;4.50;;;;;16.17;100.00;101913.69;5099255;27;45626;-65
2021/08/28 05:24:20;;;;;;;;;3.00;3.00;;;;;16.22;100.00;101910.03;5099000;27;45225;-65
2021/08/28 05:26:46;;;;;;;;;3.25;2.75;;;;;16.30;100.00;101912.56;5099159;27;45233;-65
2021/08/28 05:29:11;;;;;;;;;6.00;4.00;;;;;16.37;100.00;101903.63;5099232;27;45260;-65
2021/08/28 05:34:58;;;;;;;;;4.00;3.00;;;;;16.53;100.00;101914.75;5097995;27;45350;-65
2021/08/28 05:37:25;;;;;;;;;2.50;2.50;;;;;16.59;100.00;101904.06;5098867;27;45217;-65
2021/08/28 05:39:50;;;;;;;;;3.50;2.25;;;;;16.65;100.00;101914.47;5099304;27;45288;-65
2021/08/28 05:42:15;;;;;;;;;5.25;4.00;;;;;16.74;100.00;101910.81;5098940;27;46152;-65
2021/08/28 05:44:41;;;;;;;;;6.00;5.50;;;;;16.70;100.00;101894.19;5098873;27;45332;-65
2021/08/28 05:47:06;;;;;;;;;2.50;2.50;;;;;16.77;100.00;101902.84;5099123;27;45240;-65
2021/08/28 05:49:31;;;;;;;;;3.00;2.75;;;;;16.81;100.00;101920.34;5099186;27;45291;-66
2021/08/28 05:51:57;;;;;;;;;3.25;0.00;;;;;16.79;100.00;101915.09;5098323;27;45319;-65
2021/08/28 05:54:22;;;;;;;;;6.00;4.00;;;;;16.83;100.00;101919.41;5098470;27;45358;-65
2021/08/28 05:56:48;;;;;;;;;4.25;3.50;;;;;16.84;100.00;101920.28;5098912;27;45264;-65
2021/08/28 05:59:13;;;;;;;;;7.00;4.75;;;;;16.80;100.00;101910.69;5098871;27;45403;-66
2021/08/28 06:05:00;;;;;;;;;3.00;2.25;;;;;16.85;100.00;101924.66;5098350;27;45487;-66
2021/08/28 06:07:25;;;;;;;;;5.25;4.00;;;;;16.78;100.00;101916.00;5098689;27;45424;-65
2021/08/28 06:09:51;;;;;;;;;3.00;3.00;;;;;16.78;100.00;101921.28;5098656;27;45216;-66
2021/08/28 06:12:16;;;;;;;;;3.00;3.00;;;;;16.82;100.00;101922.09;5098518;27;46018;-66
2021/08/28 06:14:41;;;;;;;;;5.00;4.25;;;;;16.90;100.00;101938.59;5098238;27;45448;-66
2021/08/28 06:17:07;;;;;;;;;5.25;5.00;;;;;16.95;100.00;101927.94;5098312;27;45267;-65
2021/08/28 06:19:32;;;;;;;;;4.75;4.50;;;;;17.00;100.00;101921.69;5098430;27;45201;-64
2021/08/28 06:21:57;;;;;;;;;4.75;4.00;;;;;17.08;100.00;101932.06;5098046;27;46439;-65
2021/08/28 06:24:26;;;;;;;;;3.50;3.50;;;;;17.13;100.00;101923.13;5097935;27;45308;-66
2021/08/28 06:26:51;;;;;;;;;5.75;4.00;;;;;17.14;100.00;101921.38;5098328;27;45360;-66
2021/08/28 06:29:16;;;;;;;;;6.50;6.00;;;;;17.20;100.00;101920.34;5098038;27;45366;-66
2021/08/28 06:35:03;;;;;;;;;4.25;4.25;;;;;17.44;100.00;101936.50;5096469;27;45468;-64
2021/08/28 06:37:29;;;;;;;;;5.25;4.00;;;;;17.54;100.00;101933.66;5097842;27;45413;-65
2021/08/28 06:39:54;;;;;;;;;2.75;2.25;;;;;17.61;100.00;101930.81;5097537;27;45507;-65
2021/08/28 06:42:19;;;;;;;;;6.00;4.00;;;;;17.68;100.00;101926.28;5097139;27;46484;-65
2021/08/28 06:44:45;;;;;;;;;5.00;4.00;;;;;17.74;100.00;101934.06;5097498;27;45350;-65
2021/08/28 06:47:10;;;;;;;;;4.00;3.75;;;;;17.73;100.00;101927.91;5097393;27;45429;-67
2021/08/28 06:49:36;;;;;;;;;4.75;3.75;;;;;17.73;100.00;101916.47;5097575;27;45355;-65
2021/08/28 06:52:01;;;;;;;;;5.00;4.00;;;;;17.88;100.00;101926.66;5097112;27;47449;-66
2021/08/28 06:54:26;;;;;;;;;4.50;3.00;;;;;17.92;100.00;101936.25;5097149;27;45425;-66
2021/08/28 06:56:52;;;;;;;;;4.50;4.00;;;;;17.97;100.00;101938.75;5097583;27;45387;-66
2021/08/28 06:59:17;;;;;;;;;6.50;5.25;;;;;18.06;100.00;101933.22;5097969;27;45273;-66
2021/08/28 07:05:05;;;;;;;;;4.75;3.25;;;;;18.16;100.00;101925.94;5101109;27;45629;-64
2021/08/28 07:07:31;;;;;;;;;6.00;5.00;;;;;18.30;100.00;101939.63;5101136;27;45363;-65
2021/08/28 07:09:59;;;;;;;;;6.00;5.00;;;;;18.39;100.00;101931.47;5101275;27;45503;-66
2021/08/28 07:12:24;;;;;;;;;4.00;4.00;;;;;18.40;100.00;101924.41;5100941;27;46118;-66
2021/08/28 07:14:50;;;;;;;;;5.00;4.00;;;;;18.57;100.00;101941.53;5101010;27;45258;-66
2021/08/28 07:17:15;;;;;;;;;6.00;4.25;;;;;18.65;100.00;101951.94;5101038;27;45302;-66
2021/08/28 07:19:40;;;;;;;;;5.00;5.00;;;;;18.71;100.00;101946.44;5101437;27;45221;-66
2021/08/28 07:22:06;;;;;;;;;4.00;3.50;;;;;18.74;100.00;101938.44;5101196;27;46396;-66
2021/08/28 07:24:31;;;;;;;;;5.25;4.25;;;;;18.83;100.00;101938.19;5101088;27;45279;-66
2021/08/28 07:26:56;;;;;;;;;6.00;4.50;;;;;18.95;100.00;101943.09;5100934;27;45142;-66
2021/08/28 07:29:22;;;;;;;;;6.75;5.00;;;;;19.10;100.00;101940.91;5101081;27;45486;-65
2021/08/28 07:35:09;;;;;;;;;4.00;4.00;;;;;19.42;100.00;101945.19;5099902;27;45350;-66
2021/08/28 07:37:34;;;;;;;;;5.50;5.00;;;;;19.57;100.00;101950.91;5101166;27;45212;-65
2021/08/28 07:39:59;;;;;;;;;4.00;4.00;;;;;19.70;100.00;101948.75;5101326;27;45213;-66
2021/08/28 07:42:25;;;;;;;;;6.00;4.00;;;;;19.79;100.00;101934.31;5100563;27;46315;-66
2021/08/28 07:44:50;;;;;;;;;5.00;4.00;;;;;19.96;100.00;101950.50;5100820;27;45286;-66
2021/08/28 07:47:16;;;;;;;;;3.00;3.00;;;;;20.06;100.00;101938.66;5099322;27;45962;-67
2021/08/28 07:49:41;;;;;;;;;3.00;3.00;;;;;20.21;100.00;101936.41;5100785;27;45541;-66
2021/08/28 07:52:07;;;;;;;;;5.50;3.00;;;;;20.39;100.00;101939.28;5100497;27;46435;-66
2021/08/28 07:54:32;;;;;;;;;6.25;4.25;;;;;20.51;100.00;101930.03;5100467;27;45310;-65
2021/08/28 07:56:59;;;;;;;;;4.25;4.00;;;;;20.71;100.00;101945.22;5100465;27;45271;-66
2021/08/28 07:59:25;;;;;;;;;5.25;3.00;;;;;20.76;100.00;101937.94;5100912;27;45277;-66
2021/08/28 08:05:12;;;;;;;;;3.25;3.25;;;;;20.95;100.00;101933.66;5100232;27;45220;-65
2021/08/28 08:07:38;;;;;;;;;3.50;3.25;;;;;20.99;100.00;101940.59;5100597;27;45354;-65
2021/08/28 08:10:05;;;;;;;;;6.00;4.25;;;;;21.00;100.00;101934.34;5100933;27;45283;-63
2021/08/28 08:12:30;;;;;;;;;4.50;4.00;;;;;21.01;100.00;101937.88;5100059;27;46458;-66
2021/08/28 08:14:55;;;;;;;;;5.00;4.00;;;;;21.09;100.00;101936.66;5099647;27;45398;-67
2021/08/28 08:17:21;;;;;;;;;4.00;3.25;;;;;21.05;100.00;101932.41;5100484;27;45245;-65
2021/08/28 08:19:47;;;;;;;;;5.00;5.00;;;;;21.12;100.00;101937.47;5099123;27;45454;-66
2021/08/28 08:22:13;;;;;;;;;4.25;4.25;;;;;21.19;100.00;101939.81;5099894;27;46093;-65
2021/08/28 08:24:38;;;;;;;;;5.00;4.50;;;;;21.24;100.00;101932.56;5100053;27;45288;-65
2021/08/28 08:27:04;;;;;;;;;4.00;4.00;;;;;21.39;100.00;101937.25;5099898;27;45712;-65
2021/08/28 08:29:29;;;;;;;;;3.75;3.75;;;;;21.49;100.00;101931.56;5100225;27;45315;-65
2021/08/28 08:35:16;;;;;;;;;3.75;3.75;;;;;21.64;100.00;101938.91;5098580;27;45586;-65
2021/08/28 08:37:42;;;;;;;;;5.50;5.00;;;;;21.67;100.00;101934.34;5115679;27;45330;-67
2021/08/28 08:40:07;;;;;;;;;4.25;4.00;;;;;21.63;100.00;101926.56;5099739;27;45541;-66
2021/08/28 08:42:34;;;;;;;;;7.00;4.00;;;;;21.75;100.00;101934.03;5099543;27;45568;-65
2021/08/28 08:45:00;;;;;;;;;4.00;4.00;;;;;21.67;100.00;101913.06;5099618;27;45328;-65
2021/08/28 08:47:25;;;;;;;;;5.75;5.25;;;;;21.88;100.00;101929.91;5099988;27;45268;-66
2021/08/28 08:49:52;;;;;;;;;5.00;4.25;;;;;22.09;100.00;101932.63;5100137;27;45152;-66
2021/08/28 08:52:19;;;;;;;;;4.25;4.00;;;;;22.11;100.00;101910.34;5099428;27;47520;-66
2021/08/28 08:54:46;;;;;;;;;4.00;4.00;;;;;22.42;100.00;101925.84;5099805;27;45529;-66
2021/08/28 08:57:11;;;;;;;;;5.00;3.00;;;;;22.62;100.00;101935.56;5099502;27;45268;-67
2021/08/28 08:59:37;;;;;;;;;5.00;4.00;;;;;22.79;100.00;101934.78;5099989;27;45446;-66
2021/08/28 09:05:24;;;;;;;;;4.50;4.25;;;;;23.20;100.00;101924.88;5099200;27;45546;-66
2021/08/28 09:07:49;;;;;;;;;4.00;2.75;;;;;23.37;100.00;101929.41;5099169;27;45403;-65
2021/08/28 09:10:17;;;;;;;;;4.75;4.00;;;;;23.46;100.00;101928.94;5099712;27;45352;-64
2021/08/28 09:12:43;;;;;;;;;5.25;4.00;;;;;23.58;100.00;101938.19;5098919;27;46211;-65
2021/08/28 09:15:14;;;;;;;;;5.50;4.25;;;;;23.58;100.00;101936.38;5099381;27;45398;-65
2021/08/28 09:17:42;;;;;;;;;4.00;4.00;;;;;23.51;100.00;101925.09;5099176;27;45388;-66
2021/08/28 09:20:28;;;;;;;;;6.00;3.00;;;;;23.53;100.00;101939.22;5098201;27;45445;-64
2021/08/28 09:23:07;;;;;;;;;4.00;4.00;;;;;23.51;100.00;101933.09;5098593;27;47415;-66
2021/08/28 09:25:36;;;;;;;;;3.50;2.50;;;;;23.50;100.00;101950.03;5098344;27;45528;-64
2021/08/28 09:28:02;;;;;;;;;3.75;3.75;;;;;23.47;100.00;101944.88;5098960;27;45401;-66
2021/08/28 09:30:36;;;;;;;;;4.50;4.00;;;;;23.55;100.00;101941.84;5099334;27;45332;-66
2021/08/28 09:33:03;;;;;;;;;2.50;1.75;;;;;23.85;100.00;101942.13;5098903;27;46136;-66
2021/08/28 09:35:34;;;;;;;;;4.00;2.75;;;;;24.30;100.00;101941.59;5098879;27;45474;-65
2021/08/28 09:38:04;;;;;;;;;5.25;3.50;;;;;24.71;100.00;101941.22;5098916;27;45330;-65
2021/08/28 09:40:35;;;;;;;;;4.00;4.00;;;;;25.12;100.00;101933.63;5099018;27;45283;-65
2021/08/28 09:43:05;;;;;;;;;4.25;3.50;;;;;25.36;100.00;101938.53;5098790;27;45485;-65
2021/08/28 09:45:34;;;;;;;;;5.50;4.50;;;;;25.46;100.00;101937.03;5098845;27;45237;-66
2021/08/28 09:47:59;;;;;;;;;6.25;4.00;;;;;25.49;100.00;101939.53;5098945;27;45398;-66
2021/08/28 09:50:33;;;;;;;;;5.25;4.00;;;;;25.47;100.00;101934.25;5098761;27;45302;-66
2021/08/28 09:53:01;;;;;;;;;4.00;4.00;;;;;25.37;100.00;101916.19;5098878;27;45467;-66
2021/08/28 09:55:30;;;;;;;;;6.75;3.00;;;;;25.60;100.00;101940.63;5098481;27;45307;-66
2021/08/28 09:57:55;;;;;;;;;22.00;16.50;;;;;25.86;100.00;101936.47;5098544;27;45322;-66
2021/08/28 10:00:21;;;;;;;;;5.75;5.00;;;;;25.86;100.00;101927.56;5099058;27;45291;-66
2021/08/28 10:02:56;;;;;;;;;5.50;5.00;;;;;25.89;100.00;101938.94;5098183;27;47106;-64
2021/08/28 10:05:25;;;;;;;;;3.75;2.50;;;;;25.95;100.00;101930.56;5098235;27;45396;-65
2021/08/28 10:07:54;;;;;;;;;5.00;3.00;;;;;26.01;100.00;101933.81;5098273;27;45456;-66
2021/08/28 10:10:23;;;;;;;;;4.00;4.00;;;;;26.09;100.00;101927.06;5098470;27;45235;-64
2021/08/28 10:12:50;;;;;;;;;4.00;4.00;;;;;26.08;100.00;101921.78;5098575;27;45375;-63
2021/08/28 10:15:15;;;;;;;;;4.00;4.00;;;;;26.02;100.00;101924.81;5098418;27;45342;-65
2021/08/28 10:17:42;;;;;;;;;3.00;2.00;;;;;26.01;100.00;101928.44;5098498;27;45369;-65
2021/08/28 10:20:08;;;;;;;;;4.75;3.50;;;;;26.04;100.00;101922.94;5098628;27;45349;-64
2021/08/28 10:22:37;;;;;;;;;2.25;1.50;;;;;26.19;100.00;101932.69;5098318;27;45652;-64
2021/08/28 10:25:09;;;;;;;;;4.00;3.00;;;;;26.28;100.00;101934.84;5098443;27;45181;-65
2021/08/28 10:27:36;;;;;;;;;4.25;4.00;;;;;26.40;100.00;101941.28;5098236;27;45244;-65
2021/08/28 10:30:03;;;;;;;;;4.00;2.00;;;;;26.57;100.00;101929.53;5098529;27;45326;-65
2021/08/28 10:35:50;;;;;;;;;4.00;3.50;;;;;28.10;100.00;101931.09;5092267;27;45412;-65
2021/08/28 10:38:17;;;;;;;;;4.50;4.00;;;;;29.20;100.00;101927.69;5104978;27;45188;-65
2021/08/28 10:40:45;;;;;;;;;4.00;3.00;;;;;29.43;100.00;101934.03;5105181;27;45209;-65
2021/08/28 10:43:11;;;;;;;;;2.50;2.25;;;;;29.18;98.43;101931.44;5104818;27;45314;-65
2021/08/28 10:45:39;;;;;;;;;4.00;3.25;;;;;28.88;98.04;101927.34;5104597;27;45369;-65
2021/08/28 10:48:07;;;;;;;;;5.25;3.25;;;;;28.52;97.39;101927.28;5104696;27;45304;-65
2021/08/28 10:50:36;;;;;;;;;2.50;2.00;;;;;28.18;98.66;101931.41;5105282;27;45281;-65
2021/08/28 10:53:02;;;;;;;;;4.00;3.00;;;;;28.10;99.61;101928.41;5104440;27;45376;-65
2021/08/28 10:55:39;;;;;;;;;2.25;2.00;;;;;27.99;99.71;101924.63;5104671;27;45440;-66
2021/08/28 10:58:15;;;;;;;;;5.00;3.00;;;;;27.74;98.98;101928.13;5104850;27;45262;-65
2021/08/28 11:00:47;;;;;;;;;3.75;3.00;;;;;27.43;99.97;101923.94;5104632;27;45579;-65
2021/08/28 11:03:35;;;;;;;;;2.75;2.50;;;;;27.11;100.00;101933.22;5104510;27;45711;-66
2021/08/28 11:06:24;;;;;;;;;3.00;3.00;;;;;26.75;100.00;101933.72;5104265;27;45387;-65
2021/08/28 11:08:54;;;;;;;;;4.00;3.75;;;;;26.46;100.00;101933.72;5061637;28;45512;-66
2021/08/28 11:11:24;;;;;;;;;4.25;3.25;;;;;26.25;100.00;101925.19;5061864;28;45488;-65
2021/08/28 11:14:04;;;;;;;;;4.00;4.00;;;;;26.26;100.00;101926.03;5061307;28;46769;-66
2021/08/28 11:16:42;;;;;;;;;5.25;4.50;;;;;26.47;100.00;101937.25;5061171;28;45676;-66
2021/08/28 11:19:12;;;;;;;;;5.00;2.00;;;;;27.66;100.00;101921.56;5061481;28;45323;-66
2021/08/28 11:21:48;;;;;;;;;1.25;1.25;;;;;28.66;100.00;101916.38;5061907;28;45455;-66
2021/08/28 11:24:24;;;;;;;;;3.00;2.25;;;;;29.11;100.00;101916.72;5061200;28;47517;-65
2021/08/28 11:27:03;;;;;;;;;4.00;2.25;;;;;29.37;99.55;101921.03;5061409;28;45365;-65
2021/08/28 11:29:28;;;;;;;;;1.50;1.50;;;;;29.53;98.66;101915.38;5061148;28;45366;-65
2021/08/28 11:32:23;;;;;;;;;2.00;2.00;;;;;29.63;96.68;101916.41;5061543;28;45423;-65
2021/08/28 11:34:57;;;;;;;;;2.00;2.00;;;;;29.70;96.58;101928.44;5000956;28;46523;-65
2021/08/28 11:37:31;;;;;;;;;4.00;2.00;;;;;29.73;96.54;101922.81;5001296;28;45332;-65
2021/08/28 11:40:00;;;;;;;;;4.50;3.00;;;;;29.74;95.05;101915.59;5001349;28;45504;-65
2021/08/28 11:42:26;;;;;;;;;2.50;2.00;;;;;29.69;94.45;101915.09;5001697;28;45362;-66
2021/08/28 11:44:54;;;;;;;;;2.00;1.25;;;;;29.81;93.19;101911.44;5005177;28;46594;-65
2021/08/28 11:47:21;;;;;;;;;2.75;1.50;;;;;29.97;92.73;101903.91;5040801;28;45373;-66
2021/08/28 11:49:54;;;;;;;;;3.00;2.00;;;;;30.09;91.88;101885.94;5036942;28;45360;-65
2021/08/28 11:52:19;;;;;;;;;1.00;1.00;;;;;30.46;90.68;101900.06;5038166;28;45402;-66
2021/08/28 11:54:46;;;;;;;;;1.50;1.00;;;;;31.08;89.28;101886.91;5021071;28;45775;-65
2021/08/28 11:57:12;;;;;;;;;1.25;0.00;;;;;31.81;87.23;101884.44;5037619;28;45541;-66
2021/08/28 11:59:40;;;;;;;;;1.25;1.00;;;;;32.43;83.28;101881.69;5037873;28;45305;-65
2021/08/28 12:02:07;;;;;;;;;1.00;0.00;;;;;32.86;80.68;101891.41;5037534;28;45453;-66
2021/08/28 12:04:36;;;;;;;;;2.00;1.50;;;;;33.20;78.81;101890.03;5037243;28;46610;-66
2021/08/28 12:07:04;;;;;;;;;2.00;1.00;;;;;33.56;77.13;101889.50;5037306;28;46002;-66
2021/08/28 12:09:32;;;;;;;;;1.00;0.75;;;;;33.90;75.76;101888.06;5037538;28;45604;-67
2021/08/28 12:11:59;;;;;;;;;0.00;0.00;;;;;34.46;74.24;101894.50;5089210;27;45475;-66